Time;durP1;ratioP1;P1;durP2;ratioP2;P2;SDS_P1;SDS_P2;PMS_P1;PMS_P2;Temp;Humidity;BMP_temperature;BMP_pressure;BME280_temperature;BME280_humidity;BME280_pressure;Samples;Min_cycle;Max_cycle;Signal;HPM_P1;HPM_P2
2023/03/21 00:01:52;;;;;;;2.75;1.95;;;;;;;9.10;100.00;101742.28;5035498;27;101086;-29
2023/03/21 00:04:18;;;;;;;2.38;1.73;;;;;;;9.07;100.00;101737.00;5034023;28;101211;-28
2023/03/21 00:06:43;;;;;;;2.95;2.03;;;;;;;9.10;100.00;101736.00;5034300;28;96613;-31
2023/03/21 00:09:10;;;;;;;3.67;2.95;;;;;;;9.09;100.00;101729.72;5035568;27;96796;-29
2023/03/21 00:11:35;;;;;;;5.88;3.13;;;;;;;9.06;100.00;101732.56;5035258;27;99463;-28
2023/03/21 00:14:01;;;;;;;2.40;2.20;;;;;;;9.06;100.00;101732.56;5034679;27;110519;-28
2023/03/21 00:16:29;;;;;;;5.03;3.20;;;;;;;9.03;100.00;101729.09;5035677;28;96513;-30
2023/03/21 00:18:56;;;;;;;6.00;2.42;;;;;;;9.03;100.00;101724.56;5034031;28;96895;-28
2023/03/21 00:21:32;;;;;;;4.05;2.65;;;;;;;9.07;100.00;101723.50;5033235;28;100799;-28
2023/03/21 00:23:59;;;;;;;3.85;2.72;;;;;;;9.06;100.00;101718.16;5033745;28;101041;-28
2023/03/21 00:26:25;;;;;;;2.88;2.35;;;;;;;9.03;100.00;101729.09;5033536;28;96854;-28
2023/03/21 00:28:51;;;;;;;3.50;2.35;;;;;;;9.03;100.00;101716.44;5033927;28;96711;-28
2023/03/21 00:31:17;;;;;;;2.75;2.05;;;;;;;9.03;100.00;101713.75;5033791;28;100818;-28
2023/03/21 00:33:42;;;;;;;3.97;2.63;;;;;;;9.06;100.00;101726.28;5035222;28;98259;-27
2023/03/21 00:36:09;;;;;;;4.32;2.42;;;;;;;9.03;100.00;101719.16;5035128;27;96731;-29
2023/03/21 00:38:35;;;;;;;5.05;2.95;;;;;;;9.01;100.00;101714.75;5034265;28;96821;-28
2023/03/21 00:41:09;;;;;;;4.80;2.15;;;;;;;9.04;100.00;101720.94;5033580;28;101525;-29
2023/03/21 00:43:35;;;;;;;2.83;2.05;;;;;;;9.01;100.00;101718.34;5034987;28;97977;-29
2023/03/21 00:46:01;;;;;;;3.80;2.45;;;;;;;9.01;100.00;101718.34;5033193;28;96614;-29
2023/03/21 00:48:28;;;;;;;3.20;2.42;;;;;;;9.01;100.00;101706.63;5034857;28;96834;-29
2023/03/21 00:50:56;;;;;;;4.72;2.63;;;;;;;9.00;100.00;101704.91;5034531;28;99852;-28
2023/03/21 00:53:22;;;;;;;4.35;2.33;;;;;;;9.01;100.00;101703.94;5033233;28;100835;-28
2023/03/21 00:55:48;;;;;;;3.95;2.28;;;;;;;8.98;100.00;101702.25;5033542;28;96532;-28
2023/03/21 00:58:14;;;;;;;3.75;2.70;;;;;;;9.00;100.00;101702.19;5033830;28;96791;-28
2023/03/21 01:00:40;;;;;;;3.72;2.60;;;;;;;8.99;100.00;101693.22;5033225;28;100874;-28
2023/03/21 01:03:07;;;;;;;5.28;3.15;;;;;;;9.00;100.00;101691.38;5033266;28;100668;-30
2023/03/21 01:08:21;;;;;;;3.50;2.55;;;;;;;9.00;100.00;101689.56;5033404;28;96547;-28
2023/03/21 01:10:48;;;;;;;4.90;2.90;;;;;;;9.01;100.00;101679.63;5033937;27;99707;-29
2023/03/21 01:13:16;;;;;;;4.55;2.85;;;;;;;9.00;100.00;101681.44;5034392;27;97889;-28
2023/03/21 01:15:45;;;;;;;3.20;2.40;;;;;;;9.02;100.00;101678.69;5034521;27;97643;-29
2023/03/21 01:18:11;;;;;;;3.67;2.28;;;;;;;9.00;100.00;101669.78;5033255;27;96662;-28
2023/03/21 01:20:36;;;;;;;5.20;2.38;;;;;;;8.99;100.00;101668.03;5034491;27;97947;-28
2023/03/21 01:23:02;;;;;;;2.20;1.67;;;;;;;8.97;100.00;101665.38;5034381;27;97175;-28
2023/03/21 01:25:27;;;;;;;3.90;2.28;;;;;;;8.97;100.00;101659.09;5034788;27;96797;-28
2023/03/21 01:27:53;;;;;;;3.72;1.63;;;;;;;8.97;100.00;101661.78;5037619;27;96794;-28
2023/03/21 01:30:19;;;;;;;4.63;1.80;;;;;;;8.97;100.00;101656.41;5037550;27;99309;-28
2023/03/21 01:32:45;;;;;;;3.53;2.13;;;;;;;8.98;100.00;101655.44;5036396;28;101306;-28
2023/03/21 01:35:10;;;;;;;4.10;2.10;;;;;;;8.98;100.00;101650.03;5037645;27;96565;-28
2023/03/21 01:37:36;;;;;;;1.70;1.30;;;;;;;8.96;100.00;101647.38;5038155;27;96746;-28
2023/03/21 01:40:03;;;;;;;2.88;1.90;;;;;;;8.98;100.00;101647.31;5037531;27;99402;-28
2023/03/21 01:42:29;;;;;;;3.10;1.98;;;;;;;8.97;100.00;101653.69;5036264;28;101055;-29
2023/03/21 01:45:25;;;;;;;4.20;2.00;;;;;;;8.97;100.00;101648.28;5037983;27;96663;-28
2023/03/21 01:47:50;;;;;;;4.68;1.90;;;;;;;8.96;100.00;101646.50;5038210;28;96623;-28
2023/03/21 01:50:16;;;;;;;3.22;1.63;;;;;;;8.95;100.00;101642.94;5037391;27;103207;-29
2023/03/21 01:52:42;;;;;;;3.17;1.60;;;;;;;8.96;100.00;101650.09;5036486;28;101475;-28
2023/03/21 01:55:12;;;;;;;3.83;1.63;;;;;;;8.96;100.00;101646.50;5036347;28;96539;-29
2023/03/21 01:57:44;;;;;;;3.38;1.80;;;;;;;8.94;100.00;101649.28;5036376;28;96833;-28
2023/03/21 02:00:14;;;;;;;3.05;1.92;;;;;;;8.95;100.00;101644.75;5035538;28;101295;-28
2023/03/21 02:02:50;;;;;;;1.63;1.35;;;;;;;8.92;100.00;101640.38;5037342;27;99675;-28
2023/03/21 02:05:44;;;;;;;5.50;2.35;;;;;;;8.92;100.00;101643.94;5036254;28;96539;-28
2023/03/21 02:08:12;;;;;;;2.20;1.48;;;;;;;8.93;100.00;101636.72;5027724;28;96560;-28
2023/03/21 02:10:39;;;;;;;1.33;1.15;;;;;;;8.92;100.00;101632.28;5035734;28;100138;-29
2023/03/21 02:13:10;;;;;;;2.67;1.63;;;;;;;8.91;100.00;101630.50;5035827;28;100774;-28
2023/03/21 02:15:38;;;;;;;2.80;1.77;;;;;;;8.92;100.00;101625.03;5037380;27;96599;-28
2023/03/21 02:18:14;;;;;;;4.20;1.80;;;;;;;8.90;100.00;101632.31;5036328;28;96830;-28
2023/03/21 02:21:10;;;;;;;1.90;1.45;;;;;;;8.91;100.00;101633.19;5036871;28;99847;-28
2023/03/21 02:23:55;;;;;;;2.67;1.77;;;;;;;8.89;100.00;101622.47;5036992;28;99181;-28
2023/03/21 02:26:39;;;;;;;2.53;1.65;;;;;;;8.90;100.00;101616.09;5036412;27;96631;-28
2023/03/21 02:29:15;;;;;;;2.17;1.45;;;;;;;8.86;100.00;101609.06;5035800;28;96821;-28
2023/03/21 02:32:03;;;;;;;3.15;2.00;;;;;;;8.87;100.00;101616.25;5035525;28;100952;-28
2023/03/21 02:34:50;;;;;;;2.47;1.63;;;;;;;8.87;100.00;101616.25;5035701;28;101261;-29
2023/03/21 02:37:21;;;;;;;3.95;1.52;;;;;;;8.88;100.00;101604.47;5037239;27;96479;-28
2023/03/21 02:39:58;;;;;;;2.37;1.60;;;;;;;8.86;100.00;101594.69;5035809;28;96778;-29
2023/03/21 02:43:11;;;;;;;1.70;1.35;;;;;;;8.88;100.00;101600.91;5035542;28;101115;-28
2023/03/21 02:46:07;;;;;;;2.58;1.60;;;;;;;8.90;100.00;101593.63;5037284;27;97908;-28
2023/03/21 02:48:53;;;;;;;2.20;1.33;;;;;;;8.90;100.00;101597.19;5030348;28;96845;-28
2023/03/21 02:51:24;;;;;;;7.63;1.67;;;;;;;8.87;100.00;101589.22;5035665;28;96932;-33
2023/03/21 02:53:57;;;;;;;2.05;1.55;;;;;;;8.90;100.00;101591.78;5034688;28;101671;-29
2023/03/21 02:56:24;;;;;;;2.45;1.50;;;;;;;8.88;100.00;101593.69;5036661;28;98045;-29
2023/03/21 02:58:51;;;;;;;3.08;1.60;;;;;;;8.88;100.00;101592.81;5035513;27;96755;-28
2023/03/21 03:01:16;;;;;;;4.22;1.65;;;;;;;8.90;100.00;101582.81;5036725;27;96819;-29
2023/03/21 03:03:42;;;;;;;4.63;1.90;;;;;;;8.90;100.00;101582.81;5036629;27;105325;-29
2023/03/21 03:06:38;;;;;;;2.42;1.65;;;;;;;8.90;100.00;101578.28;5036337;27;97917;-28
2023/03/21 03:09:22;;;;;;;3.78;1.50;;;;;;;8.90;100.00;101591.78;5035279;28;96580;-27
2023/03/21 03:11:53;;;;;;;1.98;1.13;;;;;;;8.88;100.00;101580.16;5037256;27;96741;-28
2023/03/21 03:14:41;;;;;;;4.78;1.67;;;;;;;8.92;100.00;101589.91;5034812;28;100965;-28
2023/03/21 03:17:31;;;;;;;7.03;2.03;;;;;;;8.91;100.00;101588.16;5034917;28;101165;-29
2023/03/21 03:20:12;;;;;;;2.03;1.38;;;;;;;8.93;100.00;101591.66;5036017;28;96487;-29
2023/03/21 03:23:04;;;;;;;2.85;1.33;;;;;;;8.92;100.00;101587.22;5034923;28;96795;-28
2023/03/21 03:25:47;;;;;;;2.83;1.33;;;;;;;8.92;100.00;101580.94;5030713;28;98174;-28
2023/03/21 03:28:16;;;;;;;2.67;1.75;;;;;;;8.92;100.00;101587.22;5034071;28;101280;-28
2023/03/21 03:30:43;;;;;;;4.47;2.05;;;;;;;8.92;100.00;101580.94;5034936;28;96640;-29
2023/03/21 03:33:09;;;;;;;2.92;2.08;;;;;;;8.89;100.00;101576.53;5034840;27;97009;-28
2023/03/21 03:35:35;;;;;;;3.10;2.05;;;;;;;8.90;100.00;101580.13;5034620;27;101352;-28
2023/03/21 03:38:05;;;;;;;3.40;1.92;;;;;;;8.91;100.00;101573.75;5036414;27;98302;-29
2023/03/21 03:40:39;;;;;;;3.00;1.95;;;;;;;8.89;100.00;101575.63;5034709;28;96662;-29
2023/03/21 03:43:10;;;;;;;4.00;1.63;;;;;;;8.86;100.00;101571.25;5036267;28;96609;-28
2023/03/21 03:45:53;;;;;;;2.17;1.57;;;;;;;8.87;100.00;101567.63;5035275;28;98171;-29
2023/03/21 03:48:25;;;;;;;3.40;1.65;;;;;;;8.86;100.00;101565.84;5034327;27;100803;-29
2023/03/21 03:51:00;;;;;;;4.57;2.20;;;;;;;8.84;100.00;101554.25;5034312;28;96669;-29
2023/03/21 03:53:28;;;;;;;3.45;1.50;;;;;;;8.87;100.00;101559.50;5034756;28;96733;-28
2023/03/21 03:55:55;;;;;;;3.28;1.98;;;;;;;8.85;100.00;101558.69;5035600;28;97325;-30
2023/03/21 03:58:22;;;;;;;2.95;1.60;;;;;;;8.87;100.00;101555.94;5034315;28;100954;-28
2023/03/21 04:00:48;;;;;;;1.80;1.45;;;;;;;8.88;100.00;101555.84;5034570;28;96730;-29
2023/03/21 04:03:13;;;;;;;4.07;1.73;;;;;;;8.86;100.00;101546.94;5034904;28;96846;-28
2023/03/21 04:05:40;;;;;;;3.20;1.63;;;;;;;8.87;100.00;101542.44;5035258;27;100233;-28
2023/03/21 04:08:06;;;;;;;2.85;1.48;;;;;;;8.84;100.00;101538.03;5034035;28;100942;-29
2023/03/21 04:10:31;;;;;;;2.35;1.70;;;;;;;8.83;100.00;101525.47;5035315;28;96480;-28
2023/03/21 04:12:57;;;;;;;3.92;2.00;;;;;;;8.86;100.00;101535.25;5035763;27;96783;-28
2023/03/21 04:15:22;;;;;;;2.45;1.70;;;;;;;8.85;100.00;101531.69;5034873;27;108488;-28
2023/03/21 04:17:47;;;;;;;2.83;1.77;;;;;;;8.84;100.00;101531.75;5035187;28;100499;-29
2023/03/21 04:20:13;;;;;;;7.55;2.40;;;;;;;8.82;100.00;101531.81;5035757;27;96420;-28
2023/03/21 04:22:38;;;;;;;5.07;2.35;;;;;;;8.82;100.00;101526.41;5035957;27;96802;-28
2023/03/21 04:25:04;;;;;;;2.60;2.08;;;;;;;8.79;100.00;101526.53;5035159;27;97969;-30
2023/03/21 04:27:32;;;;;;;3.22;2.28;;;;;;;8.78;100.00;101523.91;5034352;28;98762;-28
2023/03/21 04:29:58;;;;;;;6.13;1.88;;;;;;;8.77;100.00;101522.16;5033865;28;96864;-29
2023/03/21 04:32:25;;;;;;;4.90;2.22;;;;;;;8.78;100.00;101519.38;5033932;28;96838;-29
2023/03/21 04:34:53;;;;;;;3.55;2.25;;;;;;;8.79;100.00;101525.66;5033231;28;100957;-28
2023/03/21 04:37:20;;;;;;;3.50;2.38;;;;;;;8.82;100.00;101517.41;5033516;28;100928;-28
2023/03/21 04:39:46;;;;;;;3.00;1.98;;;;;;;8.81;100.00;101518.38;5033803;28;96620;-28
2023/03/21 04:42:17;;;;;;;3.55;1.65;;;;;;;8.80;100.00;101522.91;5033816;28;96968;-29
2023/03/21 04:44:43;;;;;;;3.88;1.75;;;;;;;8.79;100.00;101517.56;5034779;27;99541;-29
2023/03/21 04:47:09;;;;;;;4.43;2.28;;;;;;;8.78;100.00;101516.69;5034776;28;98859;-28
2023/03/21 04:49:35;;;;;;;2.97;2.08;;;;;;;8.77;100.00;101516.75;5035253;27;96632;-28
2023/03/21 04:52:00;;;;;;;2.45;2.05;;;;;;;8.77;100.00;101508.63;5035416;27;96826;-27
2023/03/21 04:54:26;;;;;;;4.40;1.70;;;;;;;8.77;100.00;101506.84;5034771;28;103836;-29
2023/03/21 04:56:51;;;;;;;4.50;2.17;;;;;;;8.80;100.00;101506.69;5034789;28;97394;-29
2023/03/21 04:59:18;;;;;;;3.28;2.17;;;;;;;8.79;100.00;101502.22;5034709;27;96609;-28
2023/03/21 05:01:44;;;;;;;5.07;2.03;;;;;;;8.81;100.00;101496.75;5032250;28;96841;-28
2023/03/21 05:04:12;;;;;;;3.13;1.90;;;;;;;8.77;100.00;101490.63;5033161;28;101452;-28
2023/03/21 05:06:38;;;;;;;2.80;1.88;;;;;;;8.79;100.00;101499.53;5033130;28;100769;-28
2023/03/21 05:09:05;;;;;;;4.57;2.38;;;;;;;8.83;100.00;101490.34;5034727;27;96607;-28
2023/03/21 05:11:34;;;;;;;5.55;2.58;;;;;;;8.82;100.00;101499.41;5033365;28;96938;-28
2023/03/21 05:14:00;;;;;;;1.30;1.15;;;;;;;8.82;100.00;101498.50;5033205;28;100979;-28
2023/03/21 05:16:29;;;;;;;2.63;1.77;;;;;;;8.82;100.00;101499.41;5034670;28;99482;-29
2023/03/21 05:18:55;;;;;;;3.20;1.95;;;;;;;8.79;100.00;101493.25;5034691;27;96516;-28
2023/03/21 05:21:21;;;;;;;2.70;1.60;;;;;;;8.80;100.00;101504.00;5033494;28;96860;-28
2023/03/21 05:23:53;;;;;;;2.65;1.55;;;;;;;8.80;100.00;101509.41;5033895;28;97429;-28
2023/03/21 05:26:20;;;;;;;2.80;1.80;;;;;;;8.81;100.00;101497.63;5032214;28;101005;-28
2023/03/21 05:28:46;;;;;;;3.30;1.85;;;;;;;8.84;100.00;101497.53;5033032;28;96592;-28
2023/03/21 05:31:19;;;;;;;2.55;1.60;;;;;;;8.82;100.00;101501.22;5033187;28;96873;-28
2023/03/21 05:33:45;;;;;;;2.80;1.85;;;;;;;8.82;100.00;101493.09;5034185;27;99357;-29
2023/03/21 05:36:11;;;;;;;3.38;2.05;;;;;;;8.83;100.00;101500.28;5032379;27;100830;-29
2023/03/21 05:38:36;;;;;;;2.80;1.83;;;;;;;8.82;100.00;101506.59;5034621;27;96778;-28
2023/03/21 05:41:02;;;;;;;3.92;1.88;;;;;;;8.84;100.00;101496.63;5034889;27;96891;-28
2023/03/21 05:43:27;;;;;;;5.57;1.50;;;;;;;8.87;100.00;101501.91;5034504;27;97381;-28
2023/03/21 05:45:53;;;;;;;2.72;1.60;;;;;;;8.87;100.00;101496.50;5034102;28;98332;-28
2023/03/21 05:48:18;;;;;;;3.38;1.80;;;;;;;8.86;100.00;101495.59;5032420;28;96594;-28
2023/03/21 05:50:44;;;;;;;5.10;1.90;;;;;;;8.88;100.00;101493.72;5034282;27;96910;-28
2023/03/21 05:53:10;;;;;;;1.33;1.00;;;;;;;8.88;100.00;101496.41;5034176;28;97557;-29
2023/03/21 05:55:36;;;;;;;5.47;2.03;;;;;;;8.85;100.00;101491.16;5033914;27;99231;-30
2023/03/21 05:58:02;;;;;;;2.25;1.65;;;;;;;8.89;100.00;101495.50;5034246;27;96656;-28
2023/03/21 06:00:27;;;;;;;2.50;1.55;;;;;;;8.89;100.00;101497.28;5034266;27;97720;-27
2023/03/21 06:02:52;;;;;;;3.15;2.10;;;;;;;8.88;100.00;101498.25;5034177;27;97846;-28
2023/03/21 06:05:18;;;;;;;5.05;2.10;;;;;;;8.88;100.00;101491.00;5034189;27;98287;-28
2023/03/21 06:07:43;;;;;;;4.15;1.92;;;;;;;8.88;100.00;101499.13;5034322;27;96496;-28
2023/03/21 06:10:09;;;;;;;2.20;1.63;;;;;;;8.87;100.00;101501.91;5034360;27;96786;-27
2023/03/21 06:12:35;;;;;;;2.50;1.90;;;;;;;8.86;100.00;101511.81;5032947;27;101049;-28
2023/03/21 06:15:01;;;;;;;2.60;1.85;;;;;;;8.87;100.00;101507.31;5037320;27;97815;-28
2023/03/21 06:17:26;;;;;;;2.58;1.60;;;;;;;8.84;100.00;101504.72;5035967;28;96713;-30
2023/03/21 06:19:52;;;;;;;4.72;1.85;;;;;;;8.85;100.00;101510.06;5037214;27;96626;-29
2023/03/21 06:22:17;;;;;;;7.57;2.17;;;;;;;8.88;100.00;101504.53;5037330;27;97330;-29
2023/03/21 06:24:42;;;;;;;2.80;1.85;;;;;;;8.87;100.00;101502.78;5035713;28;98727;-28
2023/03/21 06:27:08;;;;;;;2.17;1.50;;;;;;;8.87;100.00;101513.59;5035246;27;96841;-31
2023/03/21 06:29:33;;;;;;;3.67;2.00;;;;;;;8.87;100.00;101501.91;5037462;27;96752;-28
2023/03/21 06:31:59;;;;;;;4.80;1.67;;;;;;;8.91;100.00;101520.63;5037308;27;97393;-29
2023/03/21 06:34:25;;;;;;;2.92;1.85;;;;;;;8.91;100.00;101509.81;5034970;28;101067;-28
2023/03/21 06:36:51;;;;;;;2.30;1.42;;;;;;;8.90;100.00;101521.53;5036715;27;96540;-30
2023/03/21 06:39:16;;;;;;;2.75;1.85;;;;;;;8.88;100.00;101504.53;5036375;27;96989;-29
2023/03/21 06:41:42;;;;;;;3.38;1.95;;;;;;;8.88;100.00;101511.75;5037077;27;97827;-31
2023/03/21 06:44:07;;;;;;;1.80;1.35;;;;;;;8.87;100.00;101501.91;5036823;27;97977;-30
2023/03/21 06:46:33;;;;;;;2.83;1.55;;;;;;;8.86;100.00;101506.41;5037246;27;96479;-31
2023/03/21 06:48:58;;;;;;;2.97;1.58;;;;;;;8.85;100.00;101504.66;5036719;27;96796;-31
2023/03/21 06:51:24;;;;;;;5.85;1.38;;;;;;;8.81;100.00;101497.63;5036582;27;99923;-31
2023/03/21 06:53:49;;;;;;;2.70;1.70;;;;;;;8.78;100.00;101496.91;5037205;27;97791;-30
2023/03/21 06:56:15;;;;;;;3.40;1.40;;;;;;;8.79;100.00;101488.72;5036755;27;96597;-32
2023/03/21 06:58:40;;;;;;;2.92;1.67;;;;;;;8.83;100.00;101484.06;5035401;28;96808;-31
2023/03/21 07:01:06;;;;;;;3.45;1.60;;;;;;;8.82;100.00;101491.31;5036082;27;97899;-31
2023/03/21 07:03:33;;;;;;;1.65;1.15;;;;;;;8.82;100.00;101472.41;5034699;27;101460;-31
2023/03/21 07:06:07;;;;;;;1.73;1.20;;;;;;;8.88;100.00;101476.63;5036831;27;96602;-30
2023/03/21 07:08:33;;;;;;;1.77;1.33;;;;;;;8.81;100.00;101467.91;5036612;27;96670;-30
2023/03/21 07:10:58;;;;;;;2.38;1.33;;;;;;;8.83;100.00;101465.16;5036429;28;98144;-30
2023/03/21 07:13:23;;;;;;;3.17;1.77;;;;;;;8.83;100.00;101457.94;5036368;27;98244;-31
2023/03/21 07:15:49;;;;;;;1.40;0.90;;;;;;;8.83;100.00;101463.34;5036684;27;96638;-31
2023/03/21 07:18:14;;;;;;;2.67;1.75;;;;;;;8.84;100.00;101475.00;5036809;27;96744;-30
2023/03/21 07:20:39;;;;;;;3.40;1.95;;;;;;;8.83;100.00;101471.44;5035999;28;99808;-30
2023/03/21 07:23:06;;;;;;;3.33;1.55;;;;;;;8.83;100.00;101475.97;5035982;27;97998;-30
2023/03/21 07:25:31;;;;;;;5.78;1.67;;;;;;;8.81;100.00;101459.81;5033674;28;96846;-30
2023/03/21 07:27:56;;;;;;;2.47;1.23;;;;;;;8.79;100.00;101466.22;5036027;28;96810;-30
2023/03/21 07:30:22;;;;;;;4.15;1.42;;;;;;;8.77;100.00;101469.03;5035961;27;97855;-30
2023/03/21 07:32:47;;;;;;;1.70;1.05;;;;;;;8.78;100.00;101459.09;5035946;27;97765;-30
2023/03/21 07:35:16;;;;;;;4.53;1.35;;;;;;;8.82;100.00;101466.09;5036537;27;96654;-31
2023/03/21 07:37:41;;;;;;;3.72;1.02;;;;;;;8.83;100.00;101462.47;5035977;27;96531;-31
2023/03/21 07:40:09;;;;;;;1.08;0.80;;;;;;;8.82;100.00;101463.38;5036042;27;97889;-31
2023/03/21 07:42:35;;;;;;;4.97;1.42;;;;;;;8.85;100.00;101466.84;5036387;27;97808;-31
2023/03/21 07:45:03;;;;;;;1.23;0.95;;;;;;;8.88;100.00;101464.00;5034751;28;96643;-30
2023/03/21 07:47:29;;;;;;;1.90;1.27;;;;;;;8.88;100.00;101460.44;5034788;28;96795;-28
2023/03/21 07:49:54;;;;;;;2.00;0.98;;;;;;;8.86;100.00;101457.78;5034987;27;99159;-29
2023/03/21 07:52:20;;;;;;;2.85;1.35;;;;;;;8.91;100.00;101468.38;5035457;28;108361;-28
2023/03/21 07:54:45;;;;;;;2.08;1.27;;;;;;;8.95;100.00;101458.34;5035897;28;96615;-28
2023/03/21 07:57:10;;;;;;;2.60;1.23;;;;;;;8.91;100.00;101444.97;5035937;28;96850;-28
2023/03/21 07:59:35;;;;;;;2.05;1.20;;;;;;;8.93;100.00;101451.16;5034255;27;103093;-28
2023/03/21 08:02:01;;;;;;;4.53;1.10;;;;;;;8.92;100.00;101437.75;5035497;27;97355;-29
2023/03/21 08:04:26;;;;;;;2.10;1.25;;;;;;;8.97;100.00;101442.94;5036025;27;96719;-28
2023/03/21 08:06:52;;;;;;;1.27;1.10;;;;;;;8.99;100.00;101447.31;5034755;28;96991;-29
2023/03/21 08:09:17;;;;;;;1.77;0.95;;;;;;;8.99;100.00;101441.03;5035680;28;97378;-28
2023/03/21 08:11:43;;;;;;;4.35;1.48;;;;;;;9.00;100.00;101446.34;5035562;27;97812;-28
2023/03/21 08:14:08;;;;;;;2.17;0.98;;;;;;;9.03;100.00;101438.09;5035364;27;96703;-28
2023/03/21 08:16:33;;;;;;;3.85;1.17;;;;;;;9.04;100.00;101439.88;5035021;27;100230;-28
2023/03/21 08:18:59;;;;;;;1.60;0.73;;;;;;;9.04;100.00;101437.19;5035021;27;99252;-28
2023/03/21 08:21:24;;;;;;;1.65;0.75;;;;;;;9.07;100.00;101430.75;5034981;28;99375;-28
2023/03/21 08:23:50;;;;;;;1.80;0.90;;;;;;;9.13;100.00;101427.78;5035431;27;96596;-29
2023/03/21 08:26:18;;;;;;;2.17;1.27;;;;;;;9.18;100.00;101430.28;5035104;28;96810;-28
2023/03/21 08:28:44;;;;;;;1.00;0.80;;;;;;;9.18;100.00;101425.75;5034940;28;99460;-27
2023/03/21 08:31:11;;;;;;;1.48;1.25;;;;;;;9.20;100.00;101425.66;5033958;28;100829;-28
2023/03/21 08:33:36;;;;;;;0.90;0.88;;;;;;;9.27;100.00;101427.13;5033993;28;96778;-28
2023/03/21 08:36:03;;;;;;;2.83;1.10;;;;;;;9.28;100.00;101413.53;5035003;27;96833;-28
2023/03/21 08:38:29;;;;;;;2.63;1.30;;;;;;;9.29;99.57;101404.47;5033023;28;102453;-30
2023/03/21 08:40:55;;;;;;;1.77;1.23;;;;;;;9.33;99.19;101395.25;5034913;27;99208;-28
2023/03/21 08:43:21;;;;;;;1.48;0.95;;;;;;;9.43;99.28;101401.09;5033724;28;96726;-28
2023/03/21 08:45:46;;;;;;;3.42;1.25;;;;;;;9.48;98.64;101399.06;5035361;27;96882;-28
2023/03/21 08:48:11;;;;;;;1.55;1.23;;;;;;;9.54;98.13;101396.06;5035016;27;99340;-28
2023/03/21 08:50:37;;;;;;;1.40;0.85;;;;;;;9.62;97.37;101400.22;5035066;27;97954;-28
2023/03/21 08:53:02;;;;;;;1.77;1.35;;;;;;;9.73;97.19;101406.00;5035604;27;96660;-28
2023/03/21 08:55:27;;;;;;;2.55;0.90;;;;;;;9.77;96.49;101399.47;5035285;27;96814;-28
2023/03/21 08:57:53;;;;;;;1.92;1.35;;;;;;;9.83;96.97;101395.59;5034703;28;97488;-28
2023/03/21 09:00:19;;;;;;;2.63;1.55;;;;;;;9.86;97.11;101385.47;5034605;27;99351;-29
2023/03/21 09:02:47;;;;;;;2.38;1.48;;;;;;;9.90;97.38;101386.22;5032953;28;96713;-28
2023/03/21 09:05:13;;;;;;;2.67;1.27;;;;;;;9.96;97.31;101381.38;5034759;27;96779;-28
2023/03/21 09:07:40;;;;;;;3.95;1.52;;;;;;;9.98;97.49;101378.56;5033027;27;101146;-28
2023/03/21 09:10:07;;;;;;;2.40;1.45;;;;;;;10.04;97.51;101372.88;5033048;28;100548;-29
2023/03/21 09:12:33;;;;;;;2.20;1.13;;;;;;;10.06;96.59;101375.47;5033231;28;96563;-28
2023/03/21 09:15:01;;;;;;;2.17;1.52;;;;;;;10.15;96.89;101370.50;5034735;27;96815;-28
2023/03/21 09:17:26;;;;;;;3.00;1.30;;;;;;;10.18;96.74;101373.03;5034382;28;97990;-27
2023/03/21 09:19:52;;;;;;;3.90;1.85;;;;;;;10.21;96.46;101364.75;5034932;27;97974;-29
2023/03/21 09:22:17;;;;;;;3.25;1.85;;;;;;;10.27;95.67;101368.94;5034908;27;96509;-28
2023/03/21 09:24:47;;;;;;;2.50;1.33;;;;;;;10.30;95.81;101370.69;5034488;27;96844;-28
2023/03/21 09:27:14;;;;;;;2.85;1.63;;;;;;;10.34;95.97;101359.59;5031580;28;101129;-28
2023/03/21 09:29:42;;;;;;;2.60;1.88;;;;;;;10.47;96.55;101369.81;5032778;28;100749;-28
2023/03/21 09:32:08;;;;;;;2.45;1.75;;;;;;;10.54;95.93;101363.97;5033162;28;96725;-28
2023/03/21 09:34:35;;;;;;;3.38;1.73;;;;;;;10.58;95.27;101362.84;5033153;28;96809;-28
2023/03/21 09:37:02;;;;;;;2.65;1.75;;;;;;;10.70;95.85;101360.44;5032616;28;98918;-28
2023/03/21 09:39:28;;;;;;;2.72;1.50;;;;;;;10.70;95.04;101368.56;5032821;28;101041;-28
2023/03/21 09:42:13;;;;;;;2.35;1.77;;;;;;;10.71;95.46;101368.47;5033025;28;97328;-28
2023/03/21 09:44:53;;;;;;;5.57;2.13;;;;;;;10.70;95.69;101361.31;5033425;28;96793;-28
2023/03/21 09:47:18;;;;;;;4.45;1.77;;;;;;;10.72;95.81;101372.94;5035362;27;97162;-29
2023/03/21 09:49:48;;;;;;;10.02;2.03;;;;;;;10.71;95.82;101376.63;5037772;28;97937;-28
2023/03/21 09:52:35;;;;;;;2.95;1.80;;;;;;;10.77;96.24;101369.97;5035737;28;96700;-29
2023/03/21 09:55:04;;;;;;;2.40;1.80;;;;;;;10.71;95.73;101365.78;5036580;28;96763;-28
2023/03/21 09:57:43;;;;;;;4.00;1.67;;;;;;;10.72;95.81;101348.53;5037187;28;100184;-28
2023/03/21 10:00:19;;;;;;;5.07;2.00;;;;;;;10.78;96.28;101358.19;5037637;28;97914;-28
2023/03/21 10:02:48;;;;;;;4.57;2.05;;;;;;;10.81;96.02;101361.59;5037568;27;96633;-28
2023/03/21 10:05:22;;;;;;;3.20;2.20;;;;;;;10.86;96.09;101350.50;5036396;28;96620;-28
2023/03/21 10:08:06;;;;;;;3.20;1.73;;;;;;;10.86;95.77;101361.34;5035981;28;100810;-27
2023/03/21 10:10:35;;;;;;;3.80;1.83;;;;;;;10.84;95.44;101355.13;5036202;27;101134;-27
2023/03/21 10:13:01;;;;;;;3.95;2.30;;;;;;;10.83;95.60;101348.84;5037794;28;96575;-28
2023/03/21 10:15:27;;;;;;;4.75;1.85;;;;;;;10.89;95.90;101350.34;5036305;28;96868;-28
2023/03/21 10:18:03;;;;;;;2.72;1.55;;;;;;;10.93;96.41;101351.06;5035205;28;100801;-28
2023/03/21 10:20:37;;;;;;;5.40;2.38;;;;;;;10.94;95.93;101369.97;5037428;27;97253;-27
2023/03/21 10:23:11;;;;;;;2.92;1.55;;;;;;;10.94;95.73;101369.06;5036091;28;96655;-28
2023/03/21 10:25:47;;;;;;;4.43;2.15;;;;;;;10.99;96.04;101389.56;5037014;28;96566;-28
2023/03/21 10:28:19;;;;;;;4.30;2.25;;;;;;;11.01;95.80;101381.31;5035029;28;102451;-28
2023/03/21 10:30:52;;;;;;;3.83;1.52;;;;;;;11.03;94.94;101391.09;5019261;28;101188;-28
2023/03/21 10:33:25;;;;;;;3.80;1.90;;;;;;;11.07;95.22;101386.41;5035904;28;96614;-30
2023/03/21 10:35:56;;;;;;;2.53;1.80;;;;;;;11.06;94.41;101384.66;5036200;28;96764;-28
2023/03/21 10:38:24;;;;;;;4.30;1.85;;;;;;;11.10;93.90;101386.22;5035443;27;100804;-28
2023/03/21 10:40:50;;;;;;;3.83;1.95;;;;;;;11.13;94.05;101380.66;5035460;28;101130;-28
2023/03/21 10:43:34;;;;;;;2.90;1.48;;;;;;;11.20;94.37;101383.88;5036742;27;96510;-28
2023/03/21 10:46:26;;;;;;;5.25;1.88;;;;;;;11.21;93.90;101374.81;5036942;27;96648;-28
2023/03/21 10:48:52;;;;;;;5.50;1.70;;;;;;;11.22;93.58;101357.56;5036342;27;98882;-30
2023/03/21 10:51:27;;;;;;;5.13;2.17;;;;;;;11.23;92.16;101351.19;5035213;28;101044;-28
2023/03/21 10:53:54;;;;;;;2.75;1.33;;;;;;;11.25;93.24;101365.53;5035664;28;96897;-28
2023/03/21 10:56:26;;;;;;;2.55;1.33;;;;;;;11.31;92.65;101354.34;5035772;28;96889;-29
2023/03/21 10:58:54;;;;;;;2.60;1.65;;;;;;;11.37;93.09;101345.88;5035078;27;101266;-28
2023/03/21 11:01:29;;;;;;;2.75;1.55;;;;;;;11.40;91.24;101317.69;5035488;28;100985;-28
2023/03/21 11:03:58;;;;;;;5.38;1.95;;;;;;;11.43;91.36;101317.50;5035532;28;96738;-29
2023/03/21 11:06:32;;;;;;;3.80;2.00;;;;;;;11.46;91.00;101326.34;5035382;28;96794;-28
2023/03/21 11:09:08;;;;;;;2.35;1.73;;;;;;;11.48;90.47;101332.53;5034584;28;100997;-29
2023/03/21 11:11:40;;;;;;;3.22;1.77;;;;;;;11.56;89.81;101332.13;5034696;28;100842;-28
2023/03/21 11:14:22;;;;;;;2.08;1.60;;;;;;;11.47;89.25;101341.66;5036730;27;96673;-29
2023/03/21 11:16:48;;;;;;;3.72;2.38;;;;;;;11.47;89.46;101349.78;5035212;28;96841;-28
2023/03/21 11:19:27;;;;;;;4.05;1.77;;;;;;;11.43;89.43;101345.50;5036323;27;97403;-28
2023/03/21 11:21:56;;;;;;;3.72;1.67;;;;;;;11.38;90.17;101344.88;5036267;28;97395;-28
2023/03/21 11:24:22;;;;;;;5.72;2.08;;;;;;;11.34;89.91;101342.44;5035128;28;96722;-28
2023/03/21 11:26:49;;;;;;;2.65;1.60;;;;;;;11.31;89.85;101340.78;5036127;27;96830;-28
2023/03/21 11:29:33;;;;;;;2.53;1.77;;;;;;;11.42;89.31;101338.34;5034468;28;101346;-28
2023/03/21 11:32:11;;;;;;;1.90;1.42;;;;;;;11.58;89.60;101338.31;5034859;28;100873;-28
2023/03/21 11:34:48;;;;;;;3.88;1.42;;;;;;;11.60;87.63;101340.94;5035939;27;96464;-28
2023/03/21 11:37:32;;;;;;;4.35;1.50;;;;;;;11.62;87.49;101342.59;5034823;28;96829;-28